Terminal Aerodrome Forecast
Issued by NWS

Home | Current Version | Previous Version | Text Only | Print | Product List | Glossary On
Versions: 1 2 3 4 5 6 7 8 9 10 11 12 13 14 15 16 17 18 19 20 21 22 23 24 25 26
000
FTUS45 KREV 031700
TAFTRK
TAF
KTRK 031722Z 0318/0418 VRB03KT P6SM SKC
     FM031900 24010G20KT P6SM SKC
     FM040000 26011G17KT P6SM SKC
     FM040300 27004KT P6SM SKC
     FM040700 VRB03KT P6SM SKC=

USA.gov is the U.S. government's official web portal to all federal, state and local government web resources and services.